Flight Track Log - Related Links

Times and Time Zones

All times are in EDT time to prevent confusion due to time zone crossing. See the FSR411 flight status page for this flight to view local times or setup timezone preferences in your user account.

Time Position Orientation Groundspeed Altitude Reporting Facility
EDT Latitude Longitude Course Direction KTS km/h feet Rate Location/Type
Wed 07:48:30 AM 26.0742 -80.1736 261° West 183 340 600  Level Miami Center
Wed 07:48:49 AM 26.0717 -80.1922 261° West 184 341 1.200 2.374 Climbing Miami Center
Wed 07:50:01 AM 26.0864 -80.2711 282° West 259 480 4.200 2.707 Climbing Miami Center
Wed 07:51:02 AM 26.1372 -80.3375 310° West 275 509 7.200 2.653 Climbing Miami Center
Wed 07:51:36 AM 26.1594 -80.3658 311° West 301 557 8.400 1.723 Climbing Miami Center
Wed 07:52:36 AM 26.2078 -80.4367 307° West 301 557 9.900 2.200 Climbing Miami Center
Wed 07:53:36 AM 26.2664 -80.5219 307° West 309 573 12.800 3.000 Climbing Miami Center
Wed 07:54:36 AM 26.3267 -80.6117 307° West 348 644 15.900 3.500 Climbing Miami Center
Wed 07:55:36 AM 26.4039 -80.6908 317° Northwest 369 684 19.800 3.250 Climbing Miami Center
Wed 07:56:36 AM 26.4897 -80.7608 324° Northwest 378 700 22.400 2.050 Climbing Miami Center
Wed 07:57:36 AM 26.5736 -80.8308 323° Northwest 402 745 23.900 1.850 Climbing Miami Center
Wed 07:58:36 AM 26.6797 -80.9206 323° Northwest 432 800 26.100 2.000 Climbing Miami Center
Wed 07:59:36 AM 26.7797 -81.0053 323° Northwest 448 830 27.900 1.600 Climbing Miami Center
Wed 08:00:36 AM 26.8797 -81.0858 324° Northwest 448 830 29.300 1.350 Climbing Miami Center
Wed 08:01:36 AM 26.9756 -81.1639 324° Northwest 459 850 30.600 1.400 Climbing Miami Center
Wed 08:02:36 AM 27.0894 -81.2589 323° Northwest 466 863 32.100 1.500 Climbing Miami Center
Wed 08:03:36 AM 27.1911 -81.3444 323° Northwest 466 863 33.600 1.300 Climbing Miami Center
Wed 08:04:36 AM 27.2808 -81.4206 323° Northwest 466 863 34.700 1.250 Climbing Miami Center
Wed 08:05:36 AM 27.3944 -81.5161 323° Northwest 466 863 36.100 1.350 Climbing Miami Center
Wed 08:06:36 AM 27.4861 -81.5922 324° Northwest 466 863 37.400 1.250 Climbing Miami Center
Wed 08:07:36 AM 27.5856 -81.6761 323° Northwest 459 850 38.600 945 Climbing Miami Center
Wed 08:09:21 AM 27.7658 -81.8186 325° Northwest 416 771 40.000 509 Climbing Jacksonville Center
Wed 08:10:21 AM 27.8667 -81.9067 322° Northwest 433 801 40.000  Level Jacksonville Center
Wed 08:11:21 AM 27.9797 -81.9761 332° Northwest 449 832 40.000  Level Jacksonville Center
Wed 08:12:21 AM 28.0969 -82.0292 338° Northwest 449 832 40.000  Level Jacksonville Center
Wed 08:13:21 AM 28.2142 -82.0822 338° Northwest 454 840 40.000  Level Jacksonville Center
Wed 08:14:21 AM 28.3356 -82.1356 339° North 460 851 40.000  Level Jacksonville Center
Wed 08:15:21 AM 28.4506 -82.1867 339° North 455 843 40.000  Level Jacksonville Center
Wed 08:16:21 AM 28.5678 -82.2425 337° Northwest 455 843 40.000  Level Jacksonville Center
Wed 08:17:21 AM 28.6869 -82.2961 338° Northwest 455 843 40.000  Level Jacksonville Center
Wed 08:18:21 AM 28.7789 -82.3406 337° Northwest 455 843 40.000  Level Jacksonville Center
Wed 08:19:21 AM 28.8939 -82.3922 339° North 449 832 40.000  Level Jacksonville Center
Wed 08:20:21 AM 29.0361 -82.4556 339° North 455 843 40.000  Level Jacksonville Center
Wed 08:21:21 AM 29.1511 -82.5097 338° Northwest 455 843 40.000  Level Jacksonville Center
Wed 08:22:21 AM 29.2703 -82.5642 338° Northwest 455 843 40.000  Level Jacksonville Center
Wed 08:23:21 AM 29.3872 -82.6183 338° Northwest 455 843 40.000  Level Jacksonville Center
Wed 08:24:21 AM 29.5022 -82.6778 336° Northwest 455 843 40.000  Level Jacksonville Center
Wed 08:25:21 AM 29.6192 -82.7325 338° Northwest 460 851 40.000  Level Jacksonville Center
Wed 08:26:21 AM 29.7342 -82.7850 338° Northwest 455 843 40.000  Level Jacksonville Center
Wed 08:27:21 AM 29.8511 -82.8375 339° North 450 834 40.000 50 Level Jacksonville Center
Wed 08:28:21 AM 29.9658 -82.8925 337° Northwest 450 834 40.100 400 Climbing Jacksonville Center
Wed 08:29:21 AM 30.0828 -82.9431 339° North 450 834 40.800 750 Climbing Jacksonville Center
Wed 08:30:21 AM 30.1975 -82.9983 337° Northwest 450 834 41.600 800 Climbing Jacksonville Center
Wed 08:31:21 AM 30.3122 -83.0514 338° Northwest 450 834 42.400 650 Climbing Jacksonville Center
Wed 08:32:21 AM 30.4250 -83.1069 337° Northwest 445 824 42.900 300 Climbing Jacksonville Center
Wed 08:33:21 AM 30.5397 -83.1603 338° Northwest 445 824 43.000 50 Climbing Jacksonville Center
Wed 08:34:21 AM 30.6503 -83.2136 337° Northwest 439 813 43.000  Level Jacksonville Center
Wed 08:35:21 AM 30.7650 -83.2672 338° Northwest 439 813 43.000  Level Jacksonville Center
Wed 08:36:21 AM 30.8733 -83.3233 336° Northwest 439 813 43.000  Level Jacksonville Center
Wed 08:37:21 AM 30.9858 -83.3772 338° Northwest 432 800 43.000  Level Jacksonville Center
Wed 08:39:04 AM 31.1839 -83.4733 337° Northwest 495 917 43.000  Level Atlanta Center
Wed 08:40:04 AM 31.2989 -83.5286 338° Northwest 466 863 43.000  Level Atlanta Center
Wed 08:41:04 AM 31.4119 -83.5814 338° Northwest 443 821 43.000  Level Atlanta Center
Wed 08:42:04 AM 31.5247 -83.6369 337° Northwest 438 811 43.000  Level Atlanta Center
Wed 08:43:04 AM 31.6189 -83.6828 337° Northwest 438 811 43.000  Level Atlanta Center
Wed 08:44:04 AM 31.7567 -83.7506 337° Northwest 444 822 43.000  Level Atlanta Center
Wed 08:45:04 AM 31.8778 -83.8089 338° Northwest 451 835 43.000  Level Atlanta Center
Wed 08:46:04 AM 31.9906 -83.8650 337° Northwest 451 835 43.000  Level Atlanta Center
Wed 08:47:04 AM 32.1033 -83.9211 337° Northwest 451 835 43.000  Level Atlanta Center
Wed 08:48:04 AM 32.2183 -83.9775 337° Northwest 446 826 43.000  Level Atlanta Center
Wed 08:49:04 AM 32.3331 -84.0339 337° Northwest 446 826 43.000  Level Atlanta Center
Wed 08:50:04 AM 32.4500 -84.0931 337° Northwest 441 816 43.000  Level Atlanta Center
Wed 08:51:04 AM 32.5628 -84.1497 337° Northwest 441 816 43.000  Level Atlanta Center
Wed 08:52:04 AM 32.6775 -84.2042 338° Northwest 441 816 43.000  Level Atlanta Center
Wed 08:53:04 AM 32.7942 -84.2636 337° Northwest 441 816 43.000  Level Atlanta Center
Wed 08:54:04 AM 32.9089 -84.3258 336° Northwest 448 830 43.000  Level Atlanta Center
Wed 08:55:04 AM 33.0236 -84.3856 336° Northwest 448 830 43.000  Level Atlanta Center
Wed 08:56:04 AM 33.1278 -84.4356 338° Northwest 448 830 43.000  Level Atlanta Center
Wed 08:57:04 AM 33.2444 -84.4958 337° Northwest 448 830 43.000  Level Atlanta Center
Wed 08:58:04 AM 33.3592 -84.5511 338° Northwest 448 830 43.000  Level Atlanta Center
Wed 08:59:04 AM 33.4778 -84.6142 336° Northwest 453 838 43.000  Level Atlanta Center
Wed 09:00:04 AM 33.6028 -84.6747 338° Northwest 453 838 43.000  Level Atlanta Center
Wed 09:01:04 AM 33.7172 -84.7306 338° Northwest 453 838 43.000  Level Atlanta Center
Wed 09:02:04 AM 33.8317 -84.7967 334° Northwest 447 827 43.000  Level Atlanta Center
Wed 09:03:04 AM 33.9522 -84.8578 337° Northwest 447 827 43.000  Level Atlanta Center
Wed 09:04:04 AM 34.0667 -84.9139 338° Northwest 452 837 43.000  Level Atlanta Center
Wed 09:05:04 AM 34.1811 -84.9703 338° Northwest 452 837 43.000  Level Atlanta Center
Wed 09:06:04 AM 34.2828 -85.0242 336° Northwest 452 837 43.000  Level Atlanta Center
Wed 09:07:04 AM 34.3972 -85.0836 337° Northwest 452 837 43.000  Level Atlanta Center
Wed 09:08:04 AM 34.5136 -85.1431 337° Northwest 452 837 43.000  Level Atlanta Center
Wed 09:09:04 AM 34.6339 -85.2078 336° Northwest 441 816 43.000  Level Atlanta Center
Wed 09:10:04 AM 34.7481 -85.2700 336° Northwest 441 816 43.000  Level Atlanta Center
Wed 09:11:04 AM 34.8644 -85.3297 337° Northwest 441 816 43.000  Level Atlanta Center
Wed 09:12:04 AM 34.9786 -85.3925 336° Northwest 441 816 43.000  Level Atlanta Center
Wed 09:13:04 AM 35.0781 -85.4447 337° Northwest 441 816 43.000  Level Atlanta Center
Wed 09:14:04 AM 35.1942 -85.5053 337° Northwest 441 816 43.000  Level Atlanta Center
Wed 09:14:41 AM 35.2772 -85.5500 336° Northwest 441 816 43.000  Level Memphis Center
Wed 09:15:41 AM 35.3792 -85.6028 337° Northwest 448 830 43.000  Level Memphis Center
Wed 09:16:41 AM 35.4944 -85.6675 335° Northwest 448 830 43.000  Level Memphis Center
Wed 09:17:41 AM 35.6092 -85.7275 337° Northwest 448 830 43.000  Level Memphis Center
Wed 09:18:41 AM 35.7242 -85.7900 336° Northwest 448 830 43.000  Level Memphis Center
Wed 09:19:41 AM 35.8411 -85.8528 336° Northwest 448 830 43.000  Level Memphis Center
Wed 09:20:41 AM 35.9558 -85.9131 337° Northwest 448 830 43.000  Level Memphis Center
Wed 09:21:41 AM 36.0836 -85.9831 336° Northwest 448 830 43.000  Level Memphis Center
Wed 09:22:41 AM 36.2003 -86.0464 336° Northwest 448 830 43.000  Level Memphis Center
Wed 09:23:41 AM 36.3150 -86.1072 337° Northwest 448 830 43.000  Level Memphis Center
Wed 09:24:41 AM 36.4297 -86.1733 335° Northwest 448 830 43.000  Level Memphis Center
Wed 09:25:41 AM 36.5467 -86.2372 336° Northwest 448 830 43.000  Level Memphis Center
Wed 09:26:41 AM 36.6633 -86.3011 336° Northwest 448 830 43.000  Level Memphis Center
Wed 09:27:41 AM 36.7758 -86.3653 335° Northwest 448 830 43.000  Level Memphis Center
Wed 09:28:41 AM 36.8906 -86.4297 336° Northwest 448 830 43.000  Level Memphis Center
Wed 09:29:41 AM 37.0031 -86.4942 335° Northwest 448 830 43.000  Level Memphis Center
Wed 09:30:52 AM 37.1331 -86.5636 337° Northwest 445 824 43.000  Level Indianapolis Center
Wed 09:31:54 AM 37.2467 -86.6286 336° Northwest 444 822 43.000  Level Indianapolis Center
Wed 09:32:56 AM 37.3608 -86.6908 337° Northwest 444 822 43.000 -48 Level Indianapolis Center
Wed 09:33:58 AM 37.4742 -86.7564 335° Northwest 444 822 42.900 -774 Descending Indianapolis Center
Wed 09:35:00 AM 37.5836 -86.8192 336° Northwest 447 827 41.400 -1.984 Descending Indianapolis Center
Wed 09:36:02 AM 37.7283 -86.8622 347° North 443 821 38.800 -2.274 Descending Indianapolis Center
Wed 09:37:04 AM 37.8525 -86.9031 345° North 454 840 36.700 -2.032 Descending Indianapolis Center
Wed 09:38:06 AM 37.9708 -86.9581 340° North 450 834 34.600 -2.032 Descending Indianapolis Center
Wed 09:39:08 AM 38.0864 -87.0322 333° Northwest 459 850 32.500 -2.081 Descending Indianapolis Center
Wed 09:40:10 AM 38.2028 -87.1047 334° Northwest 458 848 30.300 -2.032 Descending Indianapolis Center
Wed 09:41:12 AM 38.3147 -87.1728 335° Northwest 460 851 28.300 -2.081 Descending Indianapolis Center
Wed 09:42:14 AM 38.4486 -87.2572 334° Northwest 478 885 26.000 -1.984 Descending Indianapolis Center
Wed 09:43:16 AM 38.5683 -87.3317 334° Northwest 477 884 24.200 -968 Descending Indianapolis Center
Wed 09:44:18 AM 38.6869 -87.4069 334° Northwest 472 874 24.000 -528 Descending Indianapolis Center
Wed 09:45:21 AM 38.8022 -87.4789 334° Northwest 462 856 23.100 -1.536 Descending Indianapolis Center
Wed 09:46:23 AM 38.9133 -87.5500 334° Northwest 447 827 20.800 -2.516 Descending Indianapolis Center
Wed 09:47:25 AM 39.0447 -87.6325 334° Northwest 437 810 17.900 -2.419 Descending Indianapolis Center
Wed 09:48:27 AM 39.1500 -87.6997 334° Northwest 424 785 15.800 -2.177 Descending Indianapolis Center
Wed 09:49:29 AM 39.2519 -87.7661 333° Northwest 415 769 13.400 -2.177 Descending Indianapolis Center
Wed 09:50:31 AM 39.3500 -87.8286 334° Northwest 398 737 11.300 -1.161 Descending Indianapolis Center
Wed 09:51:33 AM 39.4494 -87.8928 334° Northwest 388 719 11.000 -145 Descending Indianapolis Center
Wed 09:52:35 AM 39.5464 -87.9567 333° Northwest 389 721 11.000  Level Indianapolis Center
Wed 09:53:37 AM 39.6436 -88.0200 333° Northwest 391 724 11.000 -581 Level Indianapolis Center
Wed 09:54:39 AM 39.7064 -88.0969 317° Northwest 321 594 9.800 -1.597 Descending Indianapolis Center
Wed 09:55:41 AM 39.7806 -88.1881 317° Northwest 307 568 7.700 -1.742 Descending Indianapolis Center
Wed 09:56:43 AM 39.8394 -88.2597 317° Northwest 299 554 6.200 -1.628 Descending Indianapolis Center
Wed 09:57:50 AM 39.8997 -88.3272 319° Northwest 285 528 4.200 -1.116 Descending Chicago Center
Wed 09:58:52 AM 39.9750 -88.3597 342° North 285 528 3.800 -726 Descending Chicago Center
Wed 09:59:54 AM 40.0486 -88.3656 357° North 247 457 2.700 -1.016 Descending Chicago Center
Wed 10:00:56 AM 40.0767 -88.3194 52° Northeast 203 377 1.700 -823 Descending Chicago Center
Wed 10:01:58 AM 40.0481 -88.2858 138° Southeast 166 307 1.000 -677 Descending Chicago Center
Wed 10:03:00 AM 40.0388 -88.2778 131° Southeast  Level Estimated

Login

Don't have an account? Register now (free) for customized features, flight alerts, and more!